createdAt,value
2022-12-26T00:00:13.831Z,0.00
2022-12-26T00:01:14.364Z,0.00
2022-12-26T00:02:13.306Z,0.00
2022-12-26T00:03:13.398Z,0.00
2022-12-26T00:04:49.675Z,0.00
2022-12-26T00:05:13.911Z,0.00
2022-12-26T00:06:12.829Z,0.00
2022-12-26T00:07:14.111Z,0.00
2022-12-26T00:08:13.345Z,0.00
2022-12-26T00:09:13.222Z,0.00
2022-12-26T00:10:13.485Z,0.00
2022-12-26T00:11:13.376Z,0.00
2022-12-26T00:12:13.375Z,0.00
2022-12-26T00:13:38.108Z,0.00
2022-12-26T00:14:13.574Z,0.00
2022-12-26T00:15:13.507Z,0.00
2022-12-26T00:16:13.552Z,0.00
2022-12-26T00:17:13.449Z,0.00
2022-12-26T00:18:14.711Z,0.00
2022-12-26T00:19:13.697Z,0.00
2022-12-26T00:20:13.565Z,0.00
2022-12-26T00:21:13.494Z,0.00
2022-12-26T00:22:13.592Z,0.00
2022-12-26T00:23:13.867Z,0.00
2022-12-26T00:24:13.096Z,0.00
2022-12-26T00:25:13.279Z,0.00
2022-12-26T00:26:13.299Z,0.00
2022-12-26T00:27:13.241Z,0.00
2022-12-26T00:28:13.478Z,0.00
2022-12-26T00:29:13.791Z,0.00
2022-12-26T00:30:13.929Z,0.00
2022-12-26T00:31:12.886Z,0.00
2022-12-26T00:32:12.943Z,0.00
2022-12-26T00:33:13.000Z,0.00
2022-12-26T00:34:13.032Z,0.00
2022-12-26T00:35:12.949Z,0.00
2022-12-26T00:36:12.843Z,0.00
2022-12-26T00:37:14.075Z,0.00
2022-12-26T00:38:13.177Z,0.00
2022-12-26T00:39:13.255Z,0.00
2022-12-26T00:40:13.311Z,0.00
2022-12-26T00:41:13.385Z,0.00
2022-12-26T00:42:13.323Z,0.00
2022-12-26T00:43:13.271Z,0.00
2022-12-26T00:44:13.766Z,0.00
2022-12-26T00:45:14.061Z,0.00
2022-12-26T00:46:13.194Z,0.00
2022-12-26T00:47:13.353Z,0.00
2022-12-26T00:48:13.246Z,0.00
2022-12-26T00:49:13.341Z,0.00
2022-12-26T00:50:15.693Z,0.00
2022-12-26T00:51:13.043Z,0.00
2022-12-26T00:52:13.128Z,0.00
2022-12-26T00:53:13.053Z,0.00
2022-12-26T00:54:13.000Z,0.00
2022-12-26T00:55:12.956Z,0.00
2022-12-26T00:56:12.872Z,0.00
2022-12-26T00:57:13.986Z,0.00
2022-12-26T00:58:13.317Z,0.00
2022-12-26T00:59:13.266Z,0.00
2022-12-26T01:00:13.477Z,0.00
2022-12-26T01:01:13.400Z,0.00
2022-12-26T01:02:13.502Z,0.00
2022-12-26T01:03:13.476Z,0.00
2022-12-26T01:04:13.572Z,0.00
2022-12-26T01:05:13.467Z,0.00
2022-12-26T01:06:13.684Z,0.00
2022-12-26T01:07:13.866Z,0.00
2022-12-26T01:08:19.770Z,0.00
2022-12-26T01:09:13.635Z,0.00
2022-12-26T01:10:13.627Z,0.00
2022-12-26T01:11:13.618Z,0.00
2022-12-26T01:12:14.028Z,0.00
2022-12-26T01:13:12.927Z,0.00
2022-12-26T01:14:12.926Z,0.00
2022-12-26T01:15:12.954Z,0.00
2022-12-26T01:16:13.140Z,0.00
2022-12-26T01:17:13.084Z,0.00
2022-12-26T01:18:13.026Z,0.00
2022-12-26T01:19:13.030Z,0.00
2022-12-26T01:20:13.143Z,0.00
2022-12-26T01:21:13.379Z,0.00
2022-12-26T01:22:13.469Z,0.00
2022-12-26T01:23:13.462Z,0.00
2022-12-26T01:24:13.342Z,0.00
2022-12-26T01:25:13.718Z,0.00
2022-12-26T01:26:17.794Z,0.00
2022-12-26T01:27:13.367Z,0.00
2022-12-26T01:28:13.817Z,0.00
2022-12-26T01:29:14.238Z,0.00
2022-12-26T01:30:13.645Z,0.00
2022-12-26T01:31:15.746Z,0.00
2022-12-26T01:32:13.439Z,0.00
2022-12-26T01:33:13.464Z,0.00
2022-12-26T01:34:13.760Z,0.00
2022-12-26T01:35:19.070Z,0.00
2022-12-26T01:36:13.109Z,0.00
2022-12-26T01:37:13.460Z,0.00
2022-12-26T01:38:14.201Z,0.00
2022-12-26T01:39:13.276Z,0.00
2022-12-26T01:40:13.771Z,0.00
2022-12-26T01:41:13.882Z,0.00
2022-12-26T01:42:14.177Z,0.00
2022-12-26T01:43:13.466Z,0.00
2022-12-26T01:44:13.534Z,0.00
2022-12-26T01:45:13.555Z,0.00
2022-12-26T01:46:13.699Z,0.00
2022-12-26T01:47:13.827Z,0.00
2022-12-26T01:48:13.742Z,0.00
2022-12-26T01:49:13.780Z,0.00
2022-12-26T01:50:13.783Z,0.00
2022-12-26T01:51:13.736Z,0.00
2022-12-26T01:52:13.988Z,0.00
2022-12-26T01:53:13.053Z,0.00
2022-12-26T01:54:40.696Z,0.00
2022-12-26T01:55:13.514Z,0.00
2022-12-26T01:56:13.483Z,0.00
2022-12-26T01:57:13.517Z,0.00
2022-12-26T01:58:13.762Z,0.00
2022-12-26T01:59:14.074Z,0.00
2022-12-26T02:00:12.983Z,0.00
2022-12-26T02:01:13.500Z,0.00
2022-12-26T02:02:13.639Z,0.00
2022-12-26T02:03:13.752Z,0.00
2022-12-26T02:04:13.885Z,0.00
2022-12-26T02:05:13.952Z,0.00
2022-12-26T02:06:12.821Z,0.00
2022-12-26T02:07:14.018Z,0.00
2022-12-26T02:08:13.039Z,0.00
2022-12-26T02:09:12.915Z,0.00
2022-12-26T02:10:12.849Z,0.00
2022-12-26T02:11:13.987Z,0.00
2022-12-26T02:12:35.324Z,0.00
2022-12-26T02:13:14.011Z,0.00
2022-12-26T02:14:13.052Z,0.00
2022-12-26T02:15:13.229Z,0.00
2022-12-26T02:16:13.481Z,0.00
2022-12-26T02:17:13.564Z,0.00
2022-12-26T02:18:13.556Z,0.00
2022-12-26T02:19:13.584Z,0.00
2022-12-26T02:20:14.735Z,0.00
2022-12-26T02:21:13.716Z,0.00
2022-12-26T02:22:14.017Z,0.00
2022-12-26T02:23:13.041Z,0.00
2022-12-26T02:24:13.092Z,0.00
2022-12-26T02:25:13.282Z,0.00
2022-12-26T02:26:13.138Z,0.00
2022-12-26T02:27:13.161Z,0.00
2022-12-26T02:28:13.102Z,0.00
2022-12-26T02:29:13.187Z,0.00
2022-12-26T02:30:13.025Z,0.00
2022-12-26T02:31:13.162Z,0.00
2022-12-26T02:32:13.299Z,0.00
2022-12-26T02:33:13.248Z,0.00
2022-12-26T02:34:13.197Z,0.00
2022-12-26T02:35:13.409Z,0.00
2022-12-26T02:36:13.731Z,0.00
2022-12-26T02:37:13.652Z,0.00
2022-12-26T02:38:13.469Z,0.00
2022-12-26T02:39:42.540Z,0.00
2022-12-26T02:40:13.665Z,0.00
2022-12-26T02:41:13.761Z,0.00
2022-12-26T02:42:13.955Z,0.00
2022-12-26T02:43:12.909Z,0.00
2022-12-26T02:44:12.944Z,0.00
2022-12-26T02:45:13.122Z,0.00
2022-12-26T02:46:13.350Z,0.00
2022-12-26T02:47:13.752Z,0.00
2022-12-26T02:48:13.577Z,0.00
2022-12-26T02:49:13.559Z,0.00
2022-12-26T02:50:13.787Z,0.00
2022-12-26T02:51:13.841Z,0.00
2022-12-26T02:52:13.772Z,0.00
2022-12-26T02:53:13.995Z,0.00
2022-12-26T02:54:13.225Z,0.00
2022-12-26T02:55:13.381Z,0.00
2022-12-26T02:56:13.432Z,0.00
2022-12-26T02:57:13.316Z,0.00
2022-12-26T02:58:13.406Z,0.00
2022-12-26T02:59:13.411Z,0.00
2022-12-26T03:00:13.464Z,0.00
2022-12-26T03:01:14.087Z,0.00
2022-12-26T03:02:13.314Z,0.00
2022-12-26T03:03:14.250Z,0.00
2022-12-26T03:04:13.191Z,0.00
2022-12-26T03:05:13.299Z,0.00
2022-12-26T03:06:13.472Z,0.00
2022-12-26T03:07:13.687Z,0.00
2022-12-26T03:08:13.584Z,0.00
2022-12-26T03:09:14.078Z,0.00
2022-12-26T03:10:13.166Z,0.00
2022-12-26T03:11:13.454Z,0.00
2022-12-26T03:12:13.298Z,0.00
2022-12-26T03:13:13.338Z,0.00
2022-12-26T03:14:13.440Z,0.00
2022-12-26T03:15:13.550Z,0.00
2022-12-26T03:16:13.519Z,0.00
2022-12-26T03:17:13.707Z,0.00
2022-12-26T03:18:13.935Z,0.00
2022-12-26T03:19:12.915Z,0.00
2022-12-26T03:20:12.830Z,0.00
2022-12-26T03:21:14.113Z,0.00
2022-12-26T03:22:13.033Z,0.00
2022-12-26T03:23:13.212Z,0.00
2022-12-26T03:24:13.084Z,0.00
2022-12-26T03:25:13.294Z,0.00
2022-12-26T03:26:13.438Z,0.00
2022-12-26T03:27:13.520Z,0.00
2022-12-26T03:28:13.797Z,0.00
2022-12-26T03:29:18.593Z,0.00
2022-12-26T03:30:12.949Z,0.00
2022-12-26T03:31:13.575Z,0.00
2022-12-26T03:32:13.600Z,0.00
2022-12-26T03:33:13.837Z,0.00
2022-12-26T03:34:13.975Z,0.00
2022-12-26T03:35:13.037Z,0.00
2022-12-26T03:36:12.970Z,0.00
2022-12-26T03:37:13.014Z,0.00
2022-12-26T03:38:12.992Z,0.00
2022-12-26T03:39:12.933Z,0.00
2022-12-26T03:40:13.184Z,0.00
2022-12-26T03:41:13.401Z,0.00
2022-12-26T03:42:13.601Z,0.00
2022-12-26T03:43:13.670Z,0.00
2022-12-26T03:44:14.061Z,0.00
2022-12-26T03:45:12.983Z,0.00
2022-12-26T03:46:13.022Z,0.00
2022-12-26T03:47:13.373Z,0.00
2022-12-26T03:48:13.782Z,0.00
2022-12-26T03:49:13.768Z,0.00
2022-12-26T03:50:13.892Z,0.00
2022-12-26T03:51:14.206Z,0.00
2022-12-26T03:52:14.352Z,0.00
2022-12-26T03:53:13.502Z,0.00
2022-12-26T03:54:13.445Z,0.00
2022-12-26T03:55:13.314Z,0.00
2022-12-26T03:56:13.436Z,0.00
2022-12-26T03:57:13.489Z,0.00
2022-12-26T03:58:13.370Z,0.00
2022-12-26T03:59:13.547Z,0.00
2022-12-26T04:00:17.355Z,0.00
2022-12-26T04:01:13.986Z,0.00
2022-12-26T04:02:13.515Z,0.00
2022-12-26T04:03:13.768Z,0.00
2022-12-26T04:04:14.061Z,0.00
2022-12-26T04:05:12.947Z,0.00
2022-12-26T04:06:12.964Z,0.00
2022-12-26T04:07:13.177Z,0.00
2022-12-26T04:08:18.270Z,0.00
2022-12-26T04:09:13.225Z,0.00
2022-12-26T04:10:13.085Z,0.00
2022-12-26T04:11:13.001Z,0.00
2022-12-26T04:12:13.025Z,0.00
2022-12-26T04:13:13.163Z,0.00
2022-12-26T04:14:13.088Z,0.00
2022-12-26T04:15:13.106Z,0.00
2022-12-26T04:16:13.050Z,0.00
2022-12-26T04:17:13.101Z,0.00
2022-12-26T04:18:13.065Z,0.00
2022-12-26T04:19:13.043Z,0.00
2022-12-26T04:20:13.144Z,0.00
2022-12-26T04:21:13.358Z,0.00
2022-12-26T04:22:13.370Z,0.00
2022-12-26T04:23:13.399Z,0.00
2022-12-26T04:24:13.445Z,0.00
2022-12-26T04:25:13.669Z,0.00
2022-12-26T04:26:13.729Z,0.00
2022-12-26T04:27:13.711Z,0.00
2022-12-26T04:28:13.787Z,0.00
2022-12-26T04:29:13.817Z,0.00
2022-12-26T04:30:13.829Z,0.00
2022-12-26T04:31:13.918Z,0.00
2022-12-26T04:32:12.783Z,0.00
2022-12-26T04:33:13.857Z,0.00
2022-12-26T04:34:13.753Z,0.00
2022-12-26T04:35:14.015Z,0.00
2022-12-26T04:36:13.282Z,0.00
2022-12-26T04:37:13.193Z,0.00
2022-12-26T04:38:13.147Z,0.00
2022-12-26T04:39:13.179Z,0.00
2022-12-26T04:40:13.402Z,0.00
2022-12-26T04:41:13.412Z,0.00
2022-12-26T04:42:13.533Z,0.00
2022-12-26T04:43:49.086Z,0.00
2022-12-26T04:44:13.149Z,0.00
2022-12-26T04:45:13.040Z,0.00
2022-12-26T04:46:13.178Z,0.00
2022-12-26T04:47:13.155Z,0.00
2022-12-26T04:48:13.147Z,0.00
2022-12-26T04:49:13.199Z,0.00
2022-12-26T04:50:13.263Z,0.00
2022-12-26T04:51:13.099Z,0.00
2022-12-26T04:52:13.143Z,0.00
2022-12-26T04:53:19.493Z,0.00
2022-12-26T04:54:13.536Z,0.00
2022-12-26T04:55:13.505Z,0.00
2022-12-26T04:56:13.428Z,0.00
2022-12-26T04:57:13.303Z,0.00
2022-12-26T04:58:13.196Z,0.00
2022-12-26T04:59:13.215Z,0.00
2022-12-26T05:00:13.409Z,0.00
2022-12-26T05:01:13.720Z,0.00
2022-12-26T05:02:14.184Z,0.00
2022-12-26T05:03:18.209Z,0.00
2022-12-26T05:04:13.629Z,0.00
2022-12-26T05:05:13.736Z,0.00
2022-12-26T05:06:13.928Z,0.00
2022-12-26T05:07:13.251Z,0.00
2022-12-26T05:08:13.435Z,0.00
2022-12-26T05:09:13.542Z,0.00
2022-12-26T05:10:13.514Z,0.00
2022-12-26T05:11:13.609Z,0.00
2022-12-26T05:12:13.895Z,0.00
2022-12-26T05:13:13.085Z,0.00
2022-12-26T05:14:13.149Z,0.00
2022-12-26T05:15:13.362Z,0.00
2022-12-26T05:16:13.802Z,0.00
2022-12-26T05:17:14.941Z,0.00
2022-12-26T05:18:12.868Z,0.00
2022-12-26T05:19:13.891Z,0.00
2022-12-26T05:20:12.885Z,0.00
2022-12-26T05:21:13.062Z,0.00
2022-12-26T05:22:12.987Z,0.00
2022-12-26T05:23:13.096Z,0.00
2022-12-26T05:24:13.145Z,0.00
2022-12-26T05:25:13.562Z,0.00
2022-12-26T05:26:13.498Z,0.00
2022-12-26T05:27:13.823Z,0.00
2022-12-26T05:28:13.110Z,0.00
2022-12-26T05:29:13.400Z,0.00
2022-12-26T05:30:13.300Z,0.00
2022-12-26T05:31:13.257Z,0.00
2022-12-26T05:32:13.382Z,0.00
2022-12-26T05:33:13.508Z,0.00
2022-12-26T05:34:13.471Z,0.00
2022-12-26T05:35:13.374Z,0.00
2022-12-26T05:36:13.453Z,0.00
2022-12-26T05:37:13.805Z,0.00
2022-12-26T05:38:13.991Z,0.00
2022-12-26T05:39:13.208Z,0.00
2022-12-26T05:40:13.248Z,0.00
2022-12-26T05:41:13.161Z,0.00
2022-12-26T05:42:13.535Z,0.00
2022-12-26T05:43:13.756Z,0.00
2022-12-26T05:44:13.697Z,0.00
2022-12-26T05:45:13.704Z,0.00
2022-12-26T05:46:14.210Z,0.00
2022-12-26T05:47:13.367Z,0.00
2022-12-26T05:48:13.488Z,0.00
2022-12-26T05:49:13.526Z,0.00
2022-12-26T05:50:13.654Z,0.00
2022-12-26T05:51:13.528Z,0.00
2022-12-26T05:52:13.477Z,0.00
2022-12-26T05:53:13.712Z,0.00
2022-12-26T05:54:18.686Z,0.00
2022-12-26T05:55:13.572Z,0.00
2022-12-26T05:56:13.540Z,0.00
2022-12-26T05:57:13.478Z,0.00
2022-12-26T05:58:13.616Z,0.00
2022-12-26T05:59:13.790Z,0.00
2022-12-26T06:00:13.699Z,0.00
2022-12-26T06:01:13.725Z,0.00
2022-12-26T06:02:13.810Z,0.00
2022-12-26T06:03:13.017Z,0.00
2022-12-26T06:04:13.086Z,0.00
2022-12-26T06:05:13.028Z,0.00
2022-12-26T06:06:13.126Z,0.00
2022-12-26T06:07:13.620Z,0.00
2022-12-26T06:08:13.799Z,0.00
2022-12-26T06:09:13.936Z,0.00
2022-12-26T06:10:12.956Z,0.00
2022-12-26T06:11:13.201Z,0.00
2022-12-26T06:12:13.359Z,0.00
2022-12-26T06:13:13.673Z,0.00
2022-12-26T06:14:13.734Z,0.00
2022-12-26T06:15:15.055Z,0.00
2022-12-26T06:16:13.529Z,0.00
2022-12-26T06:17:13.592Z,0.00
2022-12-26T06:18:13.841Z,0.00
2022-12-26T06:19:13.786Z,0.00
2022-12-26T06:20:13.906Z,0.00
2022-12-26T06:21:12.879Z,0.00
2022-12-26T06:22:13.852Z,0.00
2022-12-26T06:23:13.811Z,0.00
2022-12-26T06:24:13.642Z,0.00
2022-12-26T06:25:14.624Z,0.00
2022-12-26T06:26:13.689Z,0.00
2022-12-26T06:27:13.683Z,0.00
2022-12-26T06:28:13.913Z,0.00
2022-12-26T06:29:12.898Z,0.00
2022-12-26T06:30:13.015Z,0.00
2022-12-26T06:31:12.993Z,0.00
2022-12-26T06:32:12.998Z,0.00
2022-12-26T06:33:13.493Z,0.00
2022-12-26T06:34:13.476Z,0.00
2022-12-26T06:35:13.725Z,0.00
2022-12-26T06:36:13.647Z,0.00
2022-12-26T06:37:13.571Z,0.00
2022-12-26T06:38:13.648Z,0.00
2022-12-26T06:39:13.608Z,0.00
2022-12-26T06:40:13.818Z,0.00
2022-12-26T06:41:13.800Z,0.00
2022-12-26T06:42:13.747Z,0.00
2022-12-26T06:43:13.657Z,0.00
2022-12-26T06:44:18.106Z,0.00
2022-12-26T06:45:14.339Z,0.00
2022-12-26T06:46:13.511Z,0.00
2022-12-26T06:47:13.623Z,0.00
2022-12-26T06:48:15.735Z,0.00
2022-12-26T06:49:13.837Z,0.00
2022-12-26T06:50:13.731Z,0.00
2022-12-26T06:51:13.810Z,0.00
2022-12-26T06:52:14.052Z,0.00
2022-12-26T06:53:13.118Z,0.00
2022-12-26T06:54:13.009Z,0.00
2022-12-26T06:55:13.356Z,0.00
2022-12-26T06:56:13.763Z,0.77
2022-12-26T06:57:15.976Z,0.77
2022-12-26T06:58:13.676Z,0.77
2022-12-26T06:59:14.114Z,0.77
2022-12-26T07:00:13.121Z,1.53
2022-12-26T07:01:14.390Z,1.53
2022-12-26T07:02:13.902Z,1.53
2022-12-26T07:03:13.072Z,2.29
2022-12-26T07:04:13.062Z,2.29
2022-12-26T07:05:13.330Z,3.06
2022-12-26T07:06:13.331Z,3.06
2022-12-26T07:07:13.330Z,3.82
2022-12-26T07:08:13.232Z,4.59
2022-12-26T07:09:13.549Z,5.35
2022-12-26T07:10:13.771Z,6.88
2022-12-26T07:11:13.876Z,7.65
2022-12-26T07:12:13.041Z,9.18
2022-12-26T07:13:13.466Z,10.71
2022-12-26T07:14:14.006Z,12.24
2022-12-26T07:15:13.131Z,13.77
2022-12-26T07:16:13.338Z,16.83
2022-12-26T07:17:13.398Z,19.89
2022-12-26T07:18:13.446Z,22.95
2022-12-26T07:19:13.587Z,24.48
2022-12-26T07:20:13.428Z,27.54
2022-12-26T07:21:13.413Z,27.54
2022-12-26T07:22:13.343Z,30.60
2022-12-26T07:23:13.977Z,33.66
2022-12-26T07:24:12.911Z,42.84
2022-12-26T07:25:13.052Z,48.96
2022-12-26T07:26:13.091Z,55.08
2022-12-26T07:27:14.490Z,61.20
2022-12-26T07:28:13.660Z,61.20
2022-12-26T07:29:13.761Z,73.44
2022-12-26T07:30:13.688Z,73.44
2022-12-26T07:31:13.963Z,73.44
2022-12-26T07:32:13.082Z,79.56
2022-12-26T07:33:13.090Z,79.56
2022-12-26T07:34:13.305Z,85.68
2022-12-26T07:35:13.644Z,97.92
2022-12-26T07:36:13.890Z,110.16
2022-12-26T07:37:12.883Z,134.64
2022-12-26T07:38:12.989Z,146.88
2022-12-26T07:39:12.905Z,171.36
2022-12-26T07:40:13.232Z,183.60
2022-12-26T07:41:13.340Z,195.84
2022-12-26T07:42:13.258Z,195.84
2022-12-26T07:43:13.337Z,195.84
2022-12-26T07:44:13.528Z,220.32
2022-12-26T07:45:13.481Z,220.32
2022-12-26T07:46:13.891Z,220.32
2022-12-26T07:47:13.013Z,244.80
2022-12-26T07:48:13.291Z,244.80
2022-12-26T07:49:13.664Z,269.28
2022-12-26T07:50:13.565Z,293.76
2022-12-26T07:51:13.455Z,293.76
2022-12-26T07:52:13.483Z,293.76
2022-12-26T07:53:13.802Z,293.76
2022-12-26T07:54:14.113Z,318.24
2022-12-26T07:55:13.468Z,318.24
2022-12-26T07:56:13.632Z,293.76
2022-12-26T07:57:46.775Z,269.28
2022-12-26T07:58:14.752Z,293.76
2022-12-26T07:59:13.959Z,342.72
2022-12-26T08:00:13.213Z,391.68
2022-12-26T08:01:13.265Z,391.68
2022-12-26T08:02:13.866Z,391.68
2022-12-26T08:03:13.503Z,391.68
2022-12-26T08:04:13.541Z,391.68
2022-12-26T08:05:13.770Z,440.64
2022-12-26T08:06:13.657Z,489.60
2022-12-26T08:07:13.868Z,538.56
2022-12-26T08:08:12.844Z,636.48
2022-12-26T08:09:13.745Z,685.44
2022-12-26T08:10:13.770Z,734.40
2022-12-26T08:11:14.076Z,783.36
2022-12-26T08:12:13.228Z,783.36
2022-12-26T08:13:13.168Z,783.36
2022-12-26T08:14:13.111Z,881.28
2022-12-26T08:15:13.348Z,881.28
2022-12-26T08:16:13.409Z,881.28
2022-12-26T08:17:13.507Z,881.28
2022-12-26T08:18:13.820Z,979.20
2022-12-26T08:19:13.812Z,979.20
2022-12-26T08:20:13.719Z,1077.12
2022-12-26T08:21:13.733Z,1077.12
2022-12-26T08:22:14.058Z,979.20
2022-12-26T08:23:13.208Z,979.20
2022-12-26T08:24:13.438Z,979.20
2022-12-26T08:25:15.559Z,979.20
2022-12-26T08:26:13.945Z,1077.12
2022-12-26T08:27:12.897Z,881.28
2022-12-26T08:28:12.975Z,979.20
2022-12-26T08:29:13.150Z,979.20
2022-12-26T08:30:13.565Z,1175.04
2022-12-26T08:31:13.500Z,1175.04
2022-12-26T08:32:13.667Z,1175.04
2022-12-26T08:33:13.799Z,1077.12
2022-12-26T08:34:13.851Z,734.40
2022-12-26T08:35:14.081Z,489.60
2022-12-26T08:36:13.232Z,685.44
2022-12-26T08:37:13.297Z,783.36
2022-12-26T08:38:13.167Z,881.28
2022-12-26T08:39:13.795Z,979.20
2022-12-26T08:40:15.601Z,979.20
2022-12-26T08:41:13.029Z,1077.12
2022-12-26T08:42:12.994Z,1077.12
2022-12-26T08:43:31.902Z,979.20
2022-12-26T08:44:28.874Z,881.28
2022-12-26T08:45:13.506Z,734.40
2022-12-26T08:46:13.825Z,685.44
2022-12-26T08:47:14.065Z,636.48
2022-12-26T08:48:13.087Z,636.48
2022-12-26T08:49:13.155Z,734.40
2022-12-26T08:50:13.277Z,881.28
2022-12-26T08:51:13.649Z,881.28
2022-12-26T08:52:13.729Z,979.20
2022-12-26T08:53:13.905Z,1077.12
2022-12-26T08:54:13.070Z,1077.12
2022-12-26T08:55:13.401Z,1272.96
2022-12-26T08:56:13.599Z,1175.04
2022-12-26T08:57:13.614Z,1077.12
2022-12-26T08:58:13.680Z,979.20
2022-12-26T08:59:13.595Z,1077.12
2022-12-26T09:00:18.667Z,1175.04
2022-12-26T09:01:13.700Z,1077.12
2022-12-26T09:02:14.272Z,1175.04
2022-12-26T09:03:13.464Z,1175.04
2022-12-26T09:04:13.635Z,1272.96
2022-12-26T09:05:13.640Z,1566.72
2022-12-26T09:06:13.822Z,1566.72
2022-12-26T09:07:13.743Z,1566.72
2022-12-26T09:08:13.834Z,1762.56
2022-12-26T09:09:13.787Z,1958.40
2022-12-26T09:10:14.088Z,1762.56
2022-12-26T09:11:13.298Z,1762.56
2022-12-26T09:12:13.351Z,1566.72
2022-12-26T09:13:13.381Z,1566.72
2022-12-26T09:14:13.296Z,1566.72
2022-12-26T09:15:13.407Z,1566.72
2022-12-26T09:16:13.558Z,1566.72
2022-12-26T09:17:13.565Z,1566.72
2022-12-26T09:18:13.524Z,1566.72
2022-12-26T09:19:13.622Z,1762.56
2022-12-26T09:20:13.565Z,1762.56
2022-12-26T09:21:13.870Z,1958.40
2022-12-26T09:22:14.235Z,1958.40
2022-12-26T09:23:13.251Z,1762.56
2022-12-26T09:24:18.415Z,1958.40
2022-12-26T09:25:13.525Z,1958.40
2022-12-26T09:26:13.578Z,1958.40
2022-12-26T09:27:13.491Z,2154.24
2022-12-26T09:28:13.709Z,2154.24
2022-12-26T09:29:14.316Z,2350.08
2022-12-26T09:30:13.584Z,2545.92
2022-12-26T09:31:13.966Z,2741.76
2022-12-26T09:32:13.145Z,2545.92
2022-12-26T09:33:13.137Z,2741.76
2022-12-26T09:34:13.142Z,2937.60
2022-12-26T09:35:13.373Z,3133.44
2022-12-26T09:36:15.129Z,3525.12
2022-12-26T09:37:13.671Z,3525.12
2022-12-26T09:38:13.785Z,3525.12
2022-12-26T09:39:14.222Z,4308.48
2022-12-26T09:40:13.687Z,3133.44
2022-12-26T09:41:13.717Z,3525.12
2022-12-26T09:42:14.027Z,3525.12
2022-12-26T09:43:13.475Z,3525.12
2022-12-26T09:44:19.304Z,2741.76
2022-12-26T09:45:13.312Z,2350.08
2022-12-26T09:46:14.799Z,2154.24
2022-12-26T09:47:13.956Z,2350.08
2022-12-26T09:48:13.453Z,1958.40
2022-12-26T09:49:14.860Z,1958.40
2022-12-26T09:50:13.985Z,2350.08
2022-12-26T09:51:12.906Z,2741.76
2022-12-26T09:52:12.966Z,3133.44
2022-12-26T09:53:13.033Z,3133.44
2022-12-26T09:54:12.912Z,3525.12
2022-12-26T09:55:13.173Z,3525.12
2022-12-26T09:56:23.626Z,3916.80
2022-12-26T09:57:15.258Z,4700.16
2022-12-26T09:58:13.749Z,3525.12
2022-12-26T09:59:13.931Z,3916.80
2022-12-26T10:00:12.852Z,4308.48
2022-12-26T10:01:13.936Z,6266.88
2022-12-26T10:02:13.341Z,6266.88
2022-12-26T10:03:13.491Z,5875.20
2022-12-26T10:04:13.824Z,3916.80
2022-12-26T10:05:13.788Z,3916.80
2022-12-26T10:06:14.385Z,4308.48
2022-12-26T10:07:13.472Z,3916.80
2022-12-26T10:08:13.516Z,3916.80
2022-12-26T10:09:13.490Z,5875.20
2022-12-26T10:10:13.741Z,5091.84
2022-12-26T10:11:13.912Z,7833.60
2022-12-26T10:12:12.916Z,7833.60
2022-12-26T10:13:12.869Z,7833.60
2022-12-26T10:14:19.677Z,5091.84
2022-12-26T10:15:13.948Z,5091.84
2022-12-26T10:16:12.919Z,5483.52
2022-12-26T10:17:13.208Z,8616.96
2022-12-26T10:18:13.202Z,7833.60
2022-12-26T10:19:13.617Z,6266.88
2022-12-26T10:20:13.591Z,5091.84
2022-12-26T10:21:13.999Z,5091.84
2022-12-26T10:22:13.067Z,4700.16
2022-12-26T10:23:13.050Z,3916.80
2022-12-26T10:24:13.393Z,3525.12
2022-12-26T10:25:13.395Z,2937.60
2022-12-26T10:26:13.476Z,1958.40
2022-12-26T10:27:13.521Z,1958.40
2022-12-26T10:28:13.905Z,1958.40
2022-12-26T10:29:12.910Z,2154.24
2022-12-26T10:30:13.348Z,2741.76
2022-12-26T10:31:13.361Z,3133.44
2022-12-26T10:32:13.290Z,4308.48
2022-12-26T10:33:13.516Z,4700.16
2022-12-26T10:34:13.467Z,5091.84
2022-12-26T10:35:13.311Z,5483.52
2022-12-26T10:36:13.386Z,4700.16
2022-12-26T10:37:13.906Z,3916.80
2022-12-26T10:38:12.880Z,3525.12
2022-12-26T10:39:13.751Z,3525.12
2022-12-26T10:40:13.748Z,4700.16
2022-12-26T10:41:13.690Z,4308.48
2022-12-26T10:42:13.609Z,3916.80
2022-12-26T10:43:13.866Z,3916.80
2022-12-26T10:44:13.936Z,3525.12
2022-12-26T10:45:12.933Z,3133.44
2022-12-26T10:46:13.082Z,3133.44
2022-12-26T10:47:13.287Z,3525.12
2022-12-26T10:48:13.339Z,3916.80
2022-12-26T10:49:13.273Z,3916.80
2022-12-26T10:50:13.259Z,3916.80
2022-12-26T10:51:13.230Z,4308.48
2022-12-26T10:52:13.267Z,5091.84
2022-12-26T10:53:13.544Z,5483.52
2022-12-26T10:54:13.495Z,5091.84
2022-12-26T10:55:29.004Z,5483.52
2022-12-26T10:56:16.447Z,5875.20
2022-12-26T10:57:13.277Z,6266.88
2022-12-26T10:58:13.289Z,6266.88
2022-12-26T10:59:23.211Z,5875.20
2022-12-26T11:00:13.546Z,5875.20
2022-12-26T11:01:13.647Z,5875.20
2022-12-26T11:02:13.822Z,5483.52
2022-12-26T11:03:12.953Z,5875.20
2022-12-26T11:04:13.087Z,5483.52
2022-12-26T11:05:27.205Z,5091.84
2022-12-26T11:06:13.303Z,5091.84
2022-12-26T11:07:13.691Z,5483.52
2022-12-26T11:08:13.644Z,5483.52
2022-12-26T11:09:13.601Z,7050.24
2022-12-26T11:10:13.624Z,7050.24
2022-12-26T11:11:13.957Z,6266.88
2022-12-26T11:12:12.921Z,5875.20
2022-12-26T11:13:13.126Z,6266.88
2022-12-26T11:14:13.425Z,6266.88
2022-12-26T11:15:13.434Z,7050.24
2022-12-26T11:16:13.429Z,7833.60
2022-12-26T11:17:13.281Z,5875.20
2022-12-26T11:18:13.759Z,4308.48
2022-12-26T11:19:13.996Z,4700.16
2022-12-26T11:20:12.902Z,3525.12
2022-12-26T11:21:13.106Z,3133.44
2022-12-26T11:22:13.217Z,2937.60
2022-12-26T11:23:13.290Z,2741.76
2022-12-26T11:24:13.332Z,2545.92
2022-12-26T11:25:13.547Z,2154.24
2022-12-26T11:26:13.851Z,2350.08
2022-12-26T11:27:14.144Z,2350.08
2022-12-26T11:28:13.451Z,1958.40
2022-12-26T11:29:13.403Z,1762.56
2022-12-26T11:30:13.571Z,2154.24
2022-12-26T11:31:13.762Z,3133.44
2022-12-26T11:32:13.742Z,3133.44
2022-12-26T11:33:14.749Z,2937.60
2022-12-26T11:34:13.224Z,2545.92
2022-12-26T11:35:13.418Z,2741.76
2022-12-26T11:36:13.360Z,3525.12
2022-12-26T11:37:13.402Z,3133.44
2022-12-26T11:38:13.314Z,3916.80
2022-12-26T11:39:13.403Z,5875.20
2022-12-26T11:40:13.432Z,5483.52
2022-12-26T11:41:13.547Z,4308.48
2022-12-26T11:42:13.481Z,2741.76
2022-12-26T11:43:13.389Z,2545.92
2022-12-26T11:44:13.232Z,2545.92
2022-12-26T11:45:13.448Z,2545.92
2022-12-26T11:46:13.589Z,2154.24
2022-12-26T11:47:13.600Z,1958.40
2022-12-26T11:48:13.660Z,2350.08
2022-12-26T11:49:13.559Z,2350.08
2022-12-26T11:50:13.597Z,2545.92
2022-12-26T11:51:13.917Z,1762.56
2022-12-26T11:52:12.861Z,2741.76
2022-12-26T11:53:14.012Z,3525.12
2022-12-26T11:54:13.384Z,4308.48
2022-12-26T11:55:13.549Z,3133.44
2022-12-26T11:56:13.570Z,2154.24
2022-12-26T11:57:13.550Z,1958.40
2022-12-26T11:58:13.426Z,3133.44
2022-12-26T11:59:13.367Z,3916.80
2022-12-26T12:00:13.252Z,3525.12
2022-12-26T12:01:13.458Z,3133.44
2022-12-26T12:02:13.515Z,3133.44
2022-12-26T12:03:13.754Z,3916.80
2022-12-26T12:04:14.122Z,4700.16
2022-12-26T12:05:13.273Z,4308.48
2022-12-26T12:06:13.592Z,4308.48
2022-12-26T12:07:13.695Z,4308.48
2022-12-26T12:08:13.868Z,3525.12
2022-12-26T12:09:14.115Z,4308.48
2022-12-26T12:10:13.110Z,4700.16
2022-12-26T12:11:13.253Z,5091.84
2022-12-26T12:12:13.594Z,5483.52
2022-12-26T12:13:13.582Z,4700.16
2022-12-26T12:14:13.448Z,4308.48
2022-12-26T12:15:13.329Z,3916.80
2022-12-26T12:16:13.252Z,3525.12
2022-12-26T12:17:13.193Z,3133.44
2022-12-26T12:18:13.271Z,3525.12
2022-12-26T12:19:13.444Z,3916.80
2022-12-26T12:20:13.383Z,4700.16
2022-12-26T12:21:13.755Z,6266.88
2022-12-26T12:22:13.947Z,5091.84
2022-12-26T12:23:13.246Z,5483.52
2022-12-26T12:24:13.151Z,3525.12
2022-12-26T12:25:13.114Z,3916.80
2022-12-26T12:26:13.581Z,4700.16
2022-12-26T12:27:13.482Z,4700.16
2022-12-26T12:28:13.617Z,4700.16
2022-12-26T12:29:14.544Z,4700.16
2022-12-26T12:30:13.509Z,3525.12
2022-12-26T12:31:13.570Z,3133.44
2022-12-26T12:32:13.614Z,2937.60
2022-12-26T12:33:13.653Z,2937.60
2022-12-26T12:34:13.626Z,3133.44
2022-12-26T12:35:13.679Z,3133.44
2022-12-26T12:36:14.082Z,3133.44
2022-12-26T12:37:13.385Z,3525.12
2022-12-26T12:38:13.527Z,4700.16
2022-12-26T12:39:13.585Z,5091.84
2022-12-26T12:40:13.506Z,5483.52
2022-12-26T12:41:13.621Z,7050.24
2022-12-26T12:42:14.732Z,5875.20
2022-12-26T12:43:13.681Z,4700.16
2022-12-26T12:44:13.718Z,5483.52
2022-12-26T12:45:13.863Z,5875.20
2022-12-26T12:46:13.861Z,4700.16
2022-12-26T12:47:13.064Z,5091.84
2022-12-26T12:48:13.088Z,6266.88